Aviation Digital Data Service (ADDS)

Output produced by METARs form (1111 UTC 25 October 2014)
found at http://aviationweather.gov/adds/metars/
 
KORD 250850Z 2509/2612 24005KT 6SM BR SCT007 OVC012 
     TEMPO 2509/2512 4SM BR BKN007 
     FM251500 30009KT P6SM FEW100 
     FM251900 30012G19KT P6SM SCT100 
     FM260000 29009KT P6SM FEW250 
     FM260700 31007KT P6SM SKC